Reading, MN (56165)

2:14 PM CDT on August 28, 2015 (GMT -0500)
Worthington Municipal | | Change Station
CLOSE
Current Station
Airport
Location: Worthington,
Elevation: 1575 ft
Nearby Weather Stations

Elev 1575 ft 43.66 °N, 95.58 °W | Updated 19 minutes ago

Overcast
Overcast
66 °F
Feels Like 66 °F
N
21
Wind Variable Wind from East
Gusts 31 mph

Today
High -- | Low -- °F
--% Chance of Precip.
Yesterday
High -- | Low -- °F
Precip. -- in
6:41 AM 8:05 PM
Waxing Gibbous, 99% visible
Pressure 29.94 in
Visibility 10.0 miles
Clouds Mostly Cloudy 1800 ft
Mostly Cloudy 4200 ft
Overcast 6000 ft
Dew Point 59 °F
Humidity 78%
Rainfall 0.15 in
Snow Depth Not available.
UV 3 out of 12
Pollen 3.10 out of 12
Air Quality Not available.
Flu Activity Not available.
METAR KOTG 281855Z AUTO 10018G27KT 10SM BKN018 BKN042 OVC060 19/15 A2994 RMK AO1
Pressure 29.94 in
Visibility 10.0 miles
Clouds Mostly Cloudy 1800 ft
Mostly Cloudy 4200 ft
Overcast 6000 ft
Dew Point 59 °F
Humidity 78%
Rainfall 0.15 in
Snow Depth Not available.
UV 3 out of 12
Pollen 3.10 out of 12
Air Quality Not available.
Flu Activity Not available.
METAR KOTG 281855Z AUTO 10018G27KT 10SM BKN018 BKN042 OVC060 19/15 A2994 RMK AO1

10-Day Weather Forecast

×

Almanac

Astronomy

Aug. 28, 2015 Rise Set
Actual Time
Civil Twilight
Nautical Twilight
Astronomical Twilight
Moon
Length of Visible Light
Length of Day
Tomorrow will be .
, % of the Moon is Illuminated

Today's Extremes

State Highs State Lows

Community

WunderPhotos

Upload Photos

1,850,460 photos uploaded!

WunderBlogs® & News

Nearby

Air Quality

  Air Quality AQ Index Pollutant
Not available.

Snow Depth

Station Depth Elevation

Earthquake Activity

City Distance Mag. Time & Date
Minimum magnitude displayed is 2.5.

Coastal Water Temperatures

Place Temperature

Stations

Nearby Weather Stations

Station Location Temp. Windchill Dew Point Humidity Wind Precip. Elev Updated Type